Lobdell, Mississippi
Current Conditions -  °F | °C
As of 11:55 PM on Tuesday 21 Oct 2014 (Local Time) from KRNV Reporting Station
Haze Haze  
Wind Chill: 55°   Ceiling: 700
Heat Index: 55°   Visibility: 1mi
Dew Point: 52°   Wind: 5mph
Humidity: 89%   Direction: 10°N
Pressure: 30.08"   Gusts: NA
Location:  33.7809°N, 90.9672°W
Report Text: KRNV 220455Z AUTO 01004KT 1SM BR VV007 13/11 A3008 RMK AO2 VIS 1/4V4 T01290112
Loading
Personal Weather Stations






























Interactive Weather Map
Tropical Storm Tracking
New forecast layout! Learn more

10-Day Weather Forecast

Advertisements
Track Severe Weather on mobile